IN-0040 weather

Public forecast

Using degrees Celsius for public forecast. Weather courtesy of forecast.io.

Closest aviation weather report (METAR) to Pedong Helipad

Closest report is Bagdogra Airport, 32.3 nm (59.7 km) SSW. Retrieved 2020/08/12 00:30 UTC (30 minutes ago):

VEBD 120030Z 02003KT 6000 FEW010 SCT015 BKN080 27/25 Q1001 TEMPO 4000 RA

Closest aviation forecast (TAF) to Pedong Helipad

Forecast is more than 12 hours old.

Closest forecast is Bagdogra Airport, 32.3 nm (59.7 km) SSW. Retrieved 2020/08/11 06:30 UTC (19 hours ago):

TAF VEBD 110330Z 1106/1118 07005KTS 6000 SCT025 SCT090 TEMPO 1106/1108 BKN010 SCT025 BKN090 TEMPO 1116/1118 2000 TSRA SCT025 FEW TCU/CB 030 BKN090